sensor_id;sensor_type;location;lat;lon;timestamp;P1;durP1;ratioP1;P2;durP2;ratioP2
11699;SDS011;5906;51.660;6.674;2023-07-20T00:01:52;15.47;;;5.23;;
11699;SDS011;5906;51.660;6.674;2023-07-20T00:04:20;8.47;;;5.53;;
11699;SDS011;5906;51.660;6.674;2023-07-20T00:06:47;10.23;;;5.03;;
11699;SDS011;5906;51.660;6.674;2023-07-20T00:09:14;9.70;;;5.40;;
11699;SDS011;5906;51.660;6.674;2023-07-20T00:11:47;11.13;;;6.13;;
11699;SDS011;5906;51.660;6.674;2023-07-20T00:14:16;14.50;;;5.57;;
11699;SDS011;5906;51.660;6.674;2023-07-20T00:16:45;10.57;;;5.60;;
11699;SDS011;5906;51.660;6.674;2023-07-20T00:19:12;11.87;;;5.90;;
11699;SDS011;5906;51.660;6.674;2023-07-20T00:21:40;11.27;;;6.30;;
11699;SDS011;5906;51.660;6.674;2023-07-20T00:24:07;11.77;;;5.77;;
11699;SDS011;5906;51.660;6.674;2023-07-20T00:26:34;9.90;;;5.80;;
11699;SDS011;5906;51.660;6.674;2023-07-20T00:29:01;14.13;;;6.27;;
11699;SDS011;5906;51.660;6.674;2023-07-20T00:31:28;8.33;;;5.53;;
11699;SDS011;5906;51.660;6.674;2023-07-20T00:33:56;12.77;;;6.17;;
11699;SDS011;5906;51.660;6.674;2023-07-20T00:36:23;15.13;;;6.20;;
11699;SDS011;5906;51.660;6.674;2023-07-20T00:38:50;13.13;;;5.50;;
11699;SDS011;5906;51.660;6.674;2023-07-20T00:41:17;10.23;;;6.23;;
11699;SDS011;5906;51.660;6.674;2023-07-20T00:43:44;10.67;;;6.77;;
11699;SDS011;5906;51.660;6.674;2023-07-20T00:46:12;10.80;;;6.00;;
11699;SDS011;5906;51.660;6.674;2023-07-20T00:48:40;15.93;;;6.90;;
11699;SDS011;5906;51.660;6.674;2023-07-20T00:51:08;8.90;;;5.77;;
11699;SDS011;5906;51.660;6.674;2023-07-20T00:53:36;8.23;;;6.57;;
11699;SDS011;5906;51.660;6.674;2023-07-20T00:56:04;13.60;;;6.23;;
11699;SDS011;5906;51.660;6.674;2023-07-20T00:58:31;9.43;;;6.77;;
11699;SDS011;5906;51.660;6.674;2023-07-20T01:00:58;9.40;;;7.03;;
11699;SDS011;5906;51.660;6.674;2023-07-20T01:03:25;12.97;;;6.70;;
11699;SDS011;5906;51.660;6.674;2023-07-20T01:14:24;11.13;;;6.57;;
11699;SDS011;5906;51.660;6.674;2023-07-20T01:16:52;14.50;;;7.10;;
11699;SDS011;5906;51.660;6.674;2023-07-20T01:19:19;12.10;;;7.20;;
11699;SDS011;5906;51.660;6.674;2023-07-20T01:30:59;12.30;;;9.53;;
11699;SDS011;5906;51.660;6.674;2023-07-20T01:33:06;17.33;;;9.53;;
11699;SDS011;5906;51.660;6.674;2023-07-20T01:35:35;14.57;;;10.13;;
11699;SDS011;5906;51.660;6.674;2023-07-20T01:38:04;17.20;;;11.37;;
11699;SDS011;5906;51.660;6.674;2023-07-20T01:40:35;19.67;;;10.70;;
11699;SDS011;5906;51.660;6.674;2023-07-20T01:43:04;15.47;;;11.10;;
11699;SDS011;5906;51.660;6.674;2023-07-20T01:45:31;20.63;;;11.83;;
11699;SDS011;5906;51.660;6.674;2023-07-20T01:47:58;17.10;;;11.37;;
11699;SDS011;5906;51.660;6.674;2023-07-20T01:50:25;20.03;;;10.90;;
11699;SDS011;5906;51.660;6.674;2023-07-20T01:52:52;20.43;;;10.90;;
11699;SDS011;5906;51.660;6.674;2023-07-20T01:55:19;17.87;;;11.43;;
11699;SDS011;5906;51.660;6.674;2023-07-20T01:57:46;13.87;;;10.13;;
11699;SDS011;5906;51.660;6.674;2023-07-20T02:00:14;19.10;;;11.20;;
11699;SDS011;5906;51.660;6.674;2023-07-20T02:02:41;18.13;;;11.20;;
11699;SDS011;5906;51.660;6.674;2023-07-20T02:05:09;18.90;;;11.50;;
11699;SDS011;5906;51.660;6.674;2023-07-20T02:07:36;18.87;;;12.20;;
11699;SDS011;5906;51.660;6.674;2023-07-20T02:10:03;21.97;;;12.40;;
11699;SDS011;5906;51.660;6.674;2023-07-20T02:12:31;27.17;;;13.40;;
11699;SDS011;5906;51.660;6.674;2023-07-20T02:14:58;24.50;;;13.60;;
11699;SDS011;5906;51.660;6.674;2023-07-20T02:17:26;24.23;;;14.30;;
11699;SDS011;5906;51.660;6.674;2023-07-20T02:19:53;23.63;;;13.60;;
11699;SDS011;5906;51.660;6.674;2023-07-20T02:22:21;20.20;;;12.93;;
11699;SDS011;5906;51.660;6.674;2023-07-20T02:24:48;19.90;;;13.73;;
11699;SDS011;5906;51.660;6.674;2023-07-20T02:27:16;26.57;;;14.73;;
11699;SDS011;5906;51.660;6.674;2023-07-20T02:29:43;22.70;;;14.50;;
11699;SDS011;5906;51.660;6.674;2023-07-20T02:32:10;22.03;;;13.63;;
11699;SDS011;5906;51.660;6.674;2023-07-20T02:34:38;22.47;;;14.70;;
11699;SDS011;5906;51.660;6.674;2023-07-20T02:37:05;24.43;;;14.03;;
11699;SDS011;5906;51.660;6.674;2023-07-20T02:39:34;18.87;;;13.77;;
11699;SDS011;5906;51.660;6.674;2023-07-20T02:42:01;22.03;;;14.47;;
11699;SDS011;5906;51.660;6.674;2023-07-20T02:44:28;24.93;;;16.07;;
11699;SDS011;5906;51.660;6.674;2023-07-20T02:46:55;25.40;;;15.30;;
11699;SDS011;5906;51.660;6.674;2023-07-20T02:49:22;25.93;;;15.93;;
11699;SDS011;5906;51.660;6.674;2023-07-20T02:51:49;20.40;;;13.33;;
11699;SDS011;5906;51.660;6.674;2023-07-20T02:54:16;19.00;;;13.70;;
11699;SDS011;5906;51.660;6.674;2023-07-20T02:56:43;20.10;;;13.43;;
11699;SDS011;5906;51.660;6.674;2023-07-20T02:59:10;15.30;;;11.57;;
11699;SDS011;5906;51.660;6.674;2023-07-20T03:01:37;20.70;;;13.67;;
11699;SDS011;5906;51.660;6.674;2023-07-20T03:04:04;21.33;;;11.90;;
11699;SDS011;5906;51.660;6.674;2023-07-20T03:06:31;21.93;;;12.40;;
11699;SDS011;5906;51.660;6.674;2023-07-20T03:09:02;16.33;;;11.80;;
11699;SDS011;5906;51.660;6.674;2023-07-20T03:11:31;22.70;;;11.67;;
11699;SDS011;5906;51.660;6.674;2023-07-20T03:13:59;18.07;;;12.67;;
11699;SDS011;5906;51.660;6.674;2023-07-20T03:16:26;20.70;;;11.40;;
11699;SDS011;5906;51.660;6.674;2023-07-20T03:18:53;25.60;;;12.43;;
11699;SDS011;5906;51.660;6.674;2023-07-20T03:21:20;19.33;;;10.40;;
11699;SDS011;5906;51.660;6.674;2023-07-20T03:23:47;19.20;;;11.30;;
11699;SDS011;5906;51.660;6.674;2023-07-20T03:26:14;17.70;;;11.17;;
11699;SDS011;5906;51.660;6.674;2023-07-20T03:28:41;15.67;;;10.60;;
11699;SDS011;5906;51.660;6.674;2023-07-20T03:31:08;19.90;;;11.10;;
11699;SDS011;5906;51.660;6.674;2023-07-20T03:33:35;18.73;;;11.80;;
11699;SDS011;5906;51.660;6.674;2023-07-20T03:36:02;15.27;;;11.27;;
11699;SDS011;5906;51.660;6.674;2023-07-20T03:38:29;17.60;;;11.90;;
11699;SDS011;5906;51.660;6.674;2023-07-20T03:40:57;14.27;;;10.77;;
11699;SDS011;5906;51.660;6.674;2023-07-20T03:43:25;16.30;;;11.07;;
11699;SDS011;5906;51.660;6.674;2023-07-20T03:45:54;15.13;;;9.43;;
11699;SDS011;5906;51.660;6.674;2023-07-20T03:48:23;13.30;;;10.00;;
11699;SDS011;5906;51.660;6.674;2023-07-20T03:50:52;14.97;;;10.00;;
11699;SDS011;5906;51.660;6.674;2023-07-20T03:53:19;15.57;;;10.50;;
11699;SDS011;5906;51.660;6.674;2023-07-20T03:55:47;20.53;;;10.50;;
11699;SDS011;5906;51.660;6.674;2023-07-20T03:58:15;19.10;;;10.30;;
11699;SDS011;5906;51.660;6.674;2023-07-20T04:00:47;17.00;;;10.13;;
11699;SDS011;5906;51.660;6.674;2023-07-20T04:03:19;17.93;;;11.20;;
11699;SDS011;5906;51.660;6.674;2023-07-20T04:05:47;13.33;;;10.23;;
11699;SDS011;5906;51.660;6.674;2023-07-20T04:08:17;13.20;;;10.20;;
11699;SDS011;5906;51.660;6.674;2023-07-20T04:10:44;18.50;;;9.53;;
11699;SDS011;5906;51.660;6.674;2023-07-20T04:13:11;12.93;;;9.47;;
11699;SDS011;5906;51.660;6.674;2023-07-20T04:15:38;12.30;;;8.90;;
11699;SDS011;5906;51.660;6.674;2023-07-20T04:18:05;12.97;;;8.60;;
11699;SDS011;5906;51.660;6.674;2023-07-20T04:20:33;13.00;;;9.20;;
11699;SDS011;5906;51.660;6.674;2023-07-20T04:23:00;19.00;;;8.30;;
11699;SDS011;5906;51.660;6.674;2023-07-20T04:25:27;10.97;;;8.00;;
11699;SDS011;5906;51.660;6.674;2023-07-20T04:27:54;14.67;;;9.00;;
11699;SDS011;5906;51.660;6.674;2023-07-20T04:30:22;9.77;;;7.40;;
11699;SDS011;5906;51.660;6.674;2023-07-20T04:32:49;10.57;;;7.80;;
11699;SDS011;5906;51.660;6.674;2023-07-20T04:36:02;10.90;;;7.63;;
11699;SDS011;5906;51.660;6.674;2023-07-20T04:38:21;10.40;;;7.70;;
11699;SDS011;5906;51.660;6.674;2023-07-20T04:40:48;13.60;;;7.50;;
11699;SDS011;5906;51.660;6.674;2023-07-20T04:43:16;13.07;;;7.63;;
11699;SDS011;5906;51.660;6.674;2023-07-20T04:45:44;11.97;;;8.07;;
11699;SDS011;5906;51.660;6.674;2023-07-20T04:48:13;10.60;;;8.17;;
11699;SDS011;5906;51.660;6.674;2023-07-20T04:50:45;12.07;;;7.90;;
11699;SDS011;5906;51.660;6.674;2023-07-20T04:53:12;11.97;;;7.70;;
11699;SDS011;5906;51.660;6.674;2023-07-20T04:55:40;9.03;;;6.57;;
11699;SDS011;5906;51.660;6.674;2023-07-20T04:58:07;8.90;;;7.00;;
11699;SDS011;5906;51.660;6.674;2023-07-20T05:00:34;10.77;;;7.97;;
11699;SDS011;5906;51.660;6.674;2023-07-20T05:03:01;10.47;;;8.23;;
11699;SDS011;5906;51.660;6.674;2023-07-20T05:05:29;12.47;;;7.20;;
11699;SDS011;5906;51.660;6.674;2023-07-20T05:07:56;9.70;;;7.30;;
11699;SDS011;5906;51.660;6.674;2023-07-20T05:10:23;9.60;;;6.73;;
11699;SDS011;5906;51.660;6.674;2023-07-20T05:12:50;9.13;;;6.43;;
11699;SDS011;5906;51.660;6.674;2023-07-20T05:15:17;10.67;;;6.70;;
11699;SDS011;5906;51.660;6.674;2023-07-20T05:17:44;7.87;;;6.17;;
11699;SDS011;5906;51.660;6.674;2023-07-20T05:20:12;7.77;;;5.90;;
11699;SDS011;5906;51.660;6.674;2023-07-20T05:22:39;6.93;;;5.47;;
11699;SDS011;5906;51.660;6.674;2023-07-20T05:25:08;7.70;;;5.53;;
11699;SDS011;5906;51.660;6.674;2023-07-20T05:27:36;6.57;;;5.37;;
11699;SDS011;5906;51.660;6.674;2023-07-20T05:30:04;7.13;;;4.97;;
11699;SDS011;5906;51.660;6.674;2023-07-20T05:32:33;6.27;;;4.97;;
11699;SDS011;5906;51.660;6.674;2023-07-20T05:35:00;5.50;;;4.43;;
11699;SDS011;5906;51.660;6.674;2023-07-20T05:37:28;5.97;;;5.20;;
11699;SDS011;5906;51.660;6.674;2023-07-20T05:39:55;6.00;;;4.77;;
11699;SDS011;5906;51.660;6.674;2023-07-20T05:42:22;4.90;;;4.40;;
11699;SDS011;5906;51.660;6.674;2023-07-20T05:44:49;6.50;;;4.83;;
11699;SDS011;5906;51.660;6.674;2023-07-20T05:47:19;4.90;;;4.40;;
11699;SDS011;5906;51.660;6.674;2023-07-20T05:49:46;6.33;;;5.03;;
11699;SDS011;5906;51.660;6.674;2023-07-20T05:52:13;6.57;;;4.83;;
11699;SDS011;5906;51.660;6.674;2023-07-20T05:54:40;6.07;;;4.87;;
11699;SDS011;5906;51.660;6.674;2023-07-20T05:57:07;5.70;;;4.50;;
11699;SDS011;5906;51.660;6.674;2023-07-20T05:59:35;5.30;;;4.50;;
11699;SDS011;5906;51.660;6.674;2023-07-20T06:02:02;4.20;;;3.80;;
11699;SDS011;5906;51.660;6.674;2023-07-20T06:04:29;4.37;;;3.90;;
11699;SDS011;5906;51.660;6.674;2023-07-20T06:06:56;4.40;;;3.83;;
11699;SDS011;5906;51.660;6.674;2023-07-20T06:09:23;5.10;;;4.30;;
11699;SDS011;5906;51.660;6.674;2023-07-20T06:11:50;5.07;;;3.87;;
11699;SDS011;5906;51.660;6.674;2023-07-20T06:14:17;4.63;;;3.67;;
11699;SDS011;5906;51.660;6.674;2023-07-20T06:16:44;3.93;;;3.53;;
11699;SDS011;5906;51.660;6.674;2023-07-20T06:19:12;4.43;;;3.47;;
11699;SDS011;5906;51.660;6.674;2023-07-20T06:21:39;4.30;;;3.63;;
11699;SDS011;5906;51.660;6.674;2023-07-20T06:24:06;6.53;;;3.73;;
11699;SDS011;5906;51.660;6.674;2023-07-20T06:26:33;6.03;;;3.37;;
11699;SDS011;5906;51.660;6.674;2023-07-20T06:29:05;10.70;;;3.40;;
11699;SDS011;5906;51.660;6.674;2023-07-20T06:31:33;5.00;;;4.00;;
11699;SDS011;5906;51.660;6.674;2023-07-20T06:34:01;4.90;;;3.80;;
11699;SDS011;5906;51.660;6.674;2023-07-20T06:36:29;5.70;;;3.67;;
11699;SDS011;5906;51.660;6.674;2023-07-20T06:38:56;4.23;;;3.83;;
11699;SDS011;5906;51.660;6.674;2023-07-20T06:41:26;3.60;;;3.30;;
11699;SDS011;5906;51.660;6.674;2023-07-20T06:43:56;4.93;;;4.00;;
11699;SDS011;5906;51.660;6.674;2023-07-20T06:46:25;4.90;;;4.00;;
11699;SDS011;5906;51.660;6.674;2023-07-20T06:48:53;5.43;;;3.97;;
11699;SDS011;5906;51.660;6.674;2023-07-20T06:51:23;4.23;;;3.70;;
11699;SDS011;5906;51.660;6.674;2023-07-20T06:53:51;6.80;;;3.80;;
11699;SDS011;5906;51.660;6.674;2023-07-20T06:56:18;3.80;;;3.30;;
11699;SDS011;5906;51.660;6.674;2023-07-20T06:58:50;6.30;;;3.43;;
11699;SDS011;5906;51.660;6.674;2023-07-20T07:01:17;4.03;;;3.63;;
11699;SDS011;5906;51.660;6.674;2023-07-20T07:03:43;6.20;;;3.70;;
11699;SDS011;5906;51.660;6.674;2023-07-20T07:06:11;4.27;;;3.60;;
11699;SDS011;5906;51.660;6.674;2023-07-20T07:08:38;4.50;;;3.53;;
11699;SDS011;5906;51.660;6.674;2023-07-20T07:11:06;4.83;;;3.70;;
11699;SDS011;5906;51.660;6.674;2023-07-20T07:13:33;3.63;;;2.87;;
11699;SDS011;5906;51.660;6.674;2023-07-20T07:16:01;6.00;;;3.43;;
11699;SDS011;5906;51.660;6.674;2023-07-20T07:18:28;4.43;;;3.10;;
11699;SDS011;5906;51.660;6.674;2023-07-20T07:20:56;4.90;;;2.70;;
11699;SDS011;5906;51.660;6.674;2023-07-20T07:23:27;2.87;;;2.50;;
11699;SDS011;5906;51.660;6.674;2023-07-20T07:25:54;3.33;;;2.40;;
11699;SDS011;5906;51.660;6.674;2023-07-20T07:28:22;3.03;;;2.67;;
11699;SDS011;5906;51.660;6.674;2023-07-20T07:30:49;5.17;;;3.20;;
11699;SDS011;5906;51.660;6.674;2023-07-20T07:33:16;2.67;;;2.43;;
11699;SDS011;5906;51.660;6.674;2023-07-20T07:35:43;2.63;;;2.40;;
11699;SDS011;5906;51.660;6.674;2023-07-20T07:38:10;3.70;;;1.90;;
11699;SDS011;5906;51.660;6.674;2023-07-20T07:40:57;3.20;;;2.80;;
11699;SDS011;5906;51.660;6.674;2023-07-20T07:43:25;3.70;;;2.30;;
11699;SDS011;5906;51.660;6.674;2023-07-20T07:45:53;3.13;;;2.10;;
11699;SDS011;5906;51.660;6.674;2023-07-20T07:48:21;8.47;;;2.67;;
11699;SDS011;5906;51.660;6.674;2023-07-20T07:50:48;3.60;;;2.23;;
11699;SDS011;5906;51.660;6.674;2023-07-20T07:53:16;3.37;;;2.30;;
11699;SDS011;5906;51.660;6.674;2023-07-20T07:55:44;2.30;;;2.10;;
11699;SDS011;5906;51.660;6.674;2023-07-20T07:58:11;3.60;;;2.60;;
11699;SDS011;5906;51.660;6.674;2023-07-20T08:00:38;1.90;;;1.70;;
11699;SDS011;5906;51.660;6.674;2023-07-20T08:03:06;3.43;;;2.20;;
11699;SDS011;5906;51.660;6.674;2023-07-20T08:05:33;4.00;;;1.53;;
11699;SDS011;5906;51.660;6.674;2023-07-20T08:08:02;4.37;;;2.07;;
11699;SDS011;5906;51.660;6.674;2023-07-20T08:10:32;2.37;;;2.00;;
11699;SDS011;5906;51.660;6.674;2023-07-20T08:12:59;2.00;;;1.53;;
11699;SDS011;5906;51.660;6.674;2023-07-20T08:15:26;5.93;;;2.10;;
11699;SDS011;5906;51.660;6.674;2023-07-20T08:17:53;3.00;;;2.07;;
11699;SDS011;5906;51.660;6.674;2023-07-20T08:20:20;2.20;;;1.90;;
11699;SDS011;5906;51.660;6.674;2023-07-20T08:22:54;2.10;;;1.90;;
11699;SDS011;5906;51.660;6.674;2023-07-20T08:25:21;2.10;;;1.60;;
11699;SDS011;5906;51.660;6.674;2023-07-20T08:27:48;6.77;;;1.97;;
11699;SDS011;5906;51.660;6.674;2023-07-20T08:30:15;1.83;;;1.50;;
11699;SDS011;5906;51.660;6.674;2023-07-20T08:32:42;2.27;;;1.47;;
11699;SDS011;5906;51.660;6.674;2023-07-20T08:35:10;5.90;;;2.17;;
11699;SDS011;5906;51.660;6.674;2023-07-20T08:37:37;2.63;;;1.60;;
11699;SDS011;5906;51.660;6.674;2023-07-20T08:40:05;5.20;;;1.40;;
11699;SDS011;5906;51.660;6.674;2023-07-20T08:42:35;5.87;;;2.07;;
11699;SDS011;5906;51.660;6.674;2023-07-20T08:45:04;1.63;;;1.50;;
11699;SDS011;5906;51.660;6.674;2023-07-20T08:47:34;1.97;;;1.50;;
11699;SDS011;5906;51.660;6.674;2023-07-20T08:50:02;2.63;;;1.50;;
11699;SDS011;5906;51.660;6.674;2023-07-20T08:52:33;1.70;;;1.30;;
11699;SDS011;5906;51.660;6.674;2023-07-20T08:55:01;2.53;;;1.40;;
11699;SDS011;5906;51.660;6.674;2023-07-20T08:57:33;2.33;;;1.47;;
11699;SDS011;5906;51.660;6.674;2023-07-20T09:00:03;3.30;;;1.43;;
11699;SDS011;5906;51.660;6.674;2023-07-20T09:02:38;3.40;;;1.30;;
11699;SDS011;5906;51.660;6.674;2023-07-20T09:05:10;2.03;;;1.40;;
11699;SDS011;5906;51.660;6.674;2023-07-20T09:07:38;5.00;;;1.50;;
11699;SDS011;5906;51.660;6.674;2023-07-20T09:10:06;2.77;;;1.57;;
11699;SDS011;5906;51.660;6.674;2023-07-20T09:12:37;2.00;;;1.53;;
11699;SDS011;5906;51.660;6.674;2023-07-20T09:15:05;3.27;;;1.80;;
11699;SDS011;5906;51.660;6.674;2023-07-20T09:17:34;2.17;;;1.60;;
11699;SDS011;5906;51.660;6.674;2023-07-20T09:20:05;2.00;;;1.70;;
11699;SDS011;5906;51.660;6.674;2023-07-20T09:22:37;1.67;;;1.50;;
11699;SDS011;5906;51.660;6.674;2023-07-20T09:25:14;4.40;;;2.20;;
11699;SDS011;5906;51.660;6.674;2023-07-20T09:27:43;2.60;;;1.57;;
11699;SDS011;5906;51.660;6.674;2023-07-20T09:30:15;3.00;;;1.60;;
11699;SDS011;5906;51.660;6.674;2023-07-20T09:32:45;2.63;;;1.90;;
11699;SDS011;5906;51.660;6.674;2023-07-20T09:35:20;2.47;;;1.90;;
11699;SDS011;5906;51.660;6.674;2023-07-20T09:37:57;1.33;;;1.23;;
11699;SDS011;5906;51.660;6.674;2023-07-20T09:40:28;5.90;;;1.70;;
11699;SDS011;5906;51.660;6.674;2023-07-20T09:42:59;2.00;;;1.40;;
11699;SDS011;5906;51.660;6.674;2023-07-20T09:45:43;2.23;;;1.53;;
11699;SDS011;5906;51.660;6.674;2023-07-20T09:48:13;12.80;;;1.60;;
11699;SDS011;5906;51.660;6.674;2023-07-20T09:50:48;3.67;;;1.50;;
11699;SDS011;5906;51.660;6.674;2023-07-20T09:53:18;2.27;;;1.50;;
11699;SDS011;5906;51.660;6.674;2023-07-20T09:55:47;3.90;;;1.40;;
11699;SDS011;5906;51.660;6.674;2023-07-20T09:58:15;3.27;;;1.60;;
11699;SDS011;5906;51.660;6.674;2023-07-20T10:00:43;5.60;;;1.43;;
11699;SDS011;5906;51.660;6.674;2023-07-20T10:03:19;4.53;;;1.60;;
11699;SDS011;5906;51.660;6.674;2023-07-20T10:05:58;1.40;;;1.20;;
11699;SDS011;5906;51.660;6.674;2023-07-20T10:08:30;3.60;;;1.63;;
11699;SDS011;5906;51.660;6.674;2023-07-20T10:11:04;1.73;;;1.20;;
11699;SDS011;5906;51.660;6.674;2023-07-20T10:13:34;1.23;;;1.10;;
11699;SDS011;5906;51.660;6.674;2023-07-20T10:16:09;2.53;;;1.37;;
11699;SDS011;5906;51.660;6.674;2023-07-20T10:18:41;2.40;;;1.50;;
11699;SDS011;5906;51.660;6.674;2023-07-20T10:21:21;3.30;;;1.30;;
11699;SDS011;5906;51.660;6.674;2023-07-20T10:23:55;2.47;;;1.27;;
11699;SDS011;5906;51.660;6.674;2023-07-20T10:26:24;2.30;;;1.40;;
11699;SDS011;5906;51.660;6.674;2023-07-20T10:28:52;1.60;;;1.10;;
11699;SDS011;5906;51.660;6.674;2023-07-20T10:31:20;1.87;;;1.37;;
11699;SDS011;5906;51.660;6.674;2023-07-20T10:33:50;2.03;;;1.27;;
11699;SDS011;5906;51.660;6.674;2023-07-20T10:36:24;1.70;;;1.40;;
11699;SDS011;5906;51.660;6.674;2023-07-20T10:38:57;1.90;;;1.53;;
11699;SDS011;5906;51.660;6.674;2023-07-20T10:41:28;3.13;;;1.40;;
11699;SDS011;5906;51.660;6.674;2023-07-20T10:44:07;1.90;;;1.40;;
11699;SDS011;5906;51.660;6.674;2023-07-20T10:49:06;2.10;;;1.40;;
11699;SDS011;5906;51.660;6.674;2023-07-20T10:51:38;1.40;;;1.30;;
11699;SDS011;5906;51.660;6.674;2023-07-20T10:56:43;1.80;;;1.43;;
11699;SDS011;5906;51.660;6.674;2023-07-20T10:59:17;1.80;;;1.40;;
11699;SDS011;5906;51.660;6.674;2023-07-20T11:01:55;3.13;;;1.27;;
11699;SDS011;5906;51.660;6.674;2023-07-20T11:07:07;1.50;;;1.40;;
11699;SDS011;5906;51.660;6.674;2023-07-20T11:09:37;2.97;;;1.47;;
11699;SDS011;5906;51.660;6.674;2023-07-20T11:12:15;4.40;;;1.40;;
11699;SDS011;5906;51.660;6.674;2023-07-20T11:14:54;1.63;;;1.23;;
11699;SDS011;5906;51.660;6.674;2023-07-20T11:17:31;5.67;;;1.27;;
11699;SDS011;5906;51.660;6.674;2023-07-20T11:19:59;3.03;;;1.67;;
11699;SDS011;5906;51.660;6.674;2023-07-20T11:22:30;5.50;;;1.20;;
11699;SDS011;5906;51.660;6.674;2023-07-20T11:24:58;11.13;;;2.20;;
11699;SDS011;5906;51.660;6.674;2023-07-20T11:27:26;3.33;;;1.50;;
11699;SDS011;5906;51.660;6.674;2023-07-20T11:29:55;1.80;;;1.10;;
11699;SDS011;5906;51.660;6.674;2023-07-20T11:32:23;2.67;;;1.30;;
11699;SDS011;5906;51.660;6.674;2023-07-20T11:34:51;1.27;;;1.17;;
11699;SDS011;5906;51.660;6.674;2023-07-20T11:37:18;1.20;;;1.10;;
11699;SDS011;5906;51.660;6.674;2023-07-20T11:39:45;2.73;;;1.40;;
11699;SDS011;5906;51.660;6.674;2023-07-20T11:42:13;1.50;;;1.20;;
11699;SDS011;5906;51.660;6.674;2023-07-20T11:45:03;3.80;;;1.33;;
11699;SDS011;5906;51.660;6.674;2023-07-20T11:47:33;1.33;;;1.10;;
11699;SDS011;5906;51.660;6.674;2023-07-20T11:50:03;1.70;;;1.27;;
11699;SDS011;5906;51.660;6.674;2023-07-20T11:52:30;1.70;;;1.23;;
11699;SDS011;5906;51.660;6.674;2023-07-20T11:54:58;2.23;;;1.50;;
11699;SDS011;5906;51.660;6.674;2023-07-20T11:57:25;2.30;;;1.13;;
11699;SDS011;5906;51.660;6.674;2023-07-20T11:59:56;2.53;;;1.20;;
11699;SDS011;5906;51.660;6.674;2023-07-20T12:02:28;1.20;;;1.10;;
11699;SDS011;5906;51.660;6.674;2023-07-20T12:04:56;3.07;;;1.30;;
11699;SDS011;5906;51.660;6.674;2023-07-20T12:07:25;1.30;;;1.07;;
11699;SDS011;5906;51.660;6.674;2023-07-20T12:12:34;4.43;;;1.20;;
11699;SDS011;5906;51.660;6.674;2023-07-20T12:17:56;3.90;;;1.40;;
11699;SDS011;5906;51.660;6.674;2023-07-20T12:23:02;1.20;;;1.10;;
11699;SDS011;5906;51.660;6.674;2023-07-20T12:25:46;1.60;;;1.20;;
11699;SDS011;5906;51.660;6.674;2023-07-20T12:28:17;2.37;;;1.20;;
11699;SDS011;5906;51.660;6.674;2023-07-20T12:30:46;2.57;;;1.17;;
11699;SDS011;5906;51.660;6.674;2023-07-20T12:33:23;1.73;;;1.23;;
11699;SDS011;5906;51.660;6.674;2023-07-20T12:35:50;1.83;;;1.00;;
11699;SDS011;5906;51.660;6.674;2023-07-20T12:38:19;2.00;;;1.40;;
11699;SDS011;5906;51.660;6.674;2023-07-20T12:40:46;1.93;;;1.20;;
11699;SDS011;5906;51.660;6.674;2023-07-20T12:43:14;5.47;;;1.37;;
11699;SDS011;5906;51.660;6.674;2023-07-20T12:45:41;1.23;;;1.13;;
11699;SDS011;5906;51.660;6.674;2023-07-20T12:48:08;2.03;;;1.30;;
11699;SDS011;5906;51.660;6.674;2023-07-20T12:50:35;1.40;;;1.30;;
11699;SDS011;5906;51.660;6.674;2023-07-20T12:53:03;1.70;;;1.20;;
11699;SDS011;5906;51.660;6.674;2023-07-20T12:55:30;1.67;;;1.27;;
11699;SDS011;5906;51.660;6.674;2023-07-20T12:57:58;4.90;;;1.20;;
11699;SDS011;5906;51.660;6.674;2023-07-20T13:00:25;2.73;;;1.40;;
11699;SDS011;5906;51.660;6.674;2023-07-20T13:02:52;1.50;;;1.00;;
11699;SDS011;5906;51.660;6.674;2023-07-20T13:05:35;1.27;;;1.10;;
11699;SDS011;5906;51.660;6.674;2023-07-20T13:08:05;1.47;;;1.20;;
11699;SDS011;5906;51.660;6.674;2023-07-20T13:10:35;2.20;;;1.40;;
11699;SDS011;5906;51.660;6.674;2023-07-20T13:13:02;1.40;;;1.00;;
11699;SDS011;5906;51.660;6.674;2023-07-20T13:15:29;1.30;;;1.20;;
11699;SDS011;5906;51.660;6.674;2023-07-20T13:18:00;1.23;;;1.13;;
11699;SDS011;5906;51.660;6.674;2023-07-20T13:20:28;2.33;;;1.10;;
11699;SDS011;5906;51.660;6.674;2023-07-20T13:22:56;2.67;;;2.00;;
11699;SDS011;5906;51.660;6.674;2023-07-20T13:25:23;1.87;;;1.07;;
11699;SDS011;5906;51.660;6.674;2023-07-20T13:27:51;1.67;;;1.10;;
11699;SDS011;5906;51.660;6.674;2023-07-20T13:30:17;1.30;;;1.10;;
11699;SDS011;5906;51.660;6.674;2023-07-20T13:32:45;1.10;;;1.00;;
11699;SDS011;5906;51.660;6.674;2023-07-20T13:35:12;1.93;;;1.20;;
11699;SDS011;5906;51.660;6.674;2023-07-20T13:37:39;1.30;;;1.20;;
11699;SDS011;5906;51.660;6.674;2023-07-20T13:40:07;3.40;;;1.30;;
11699;SDS011;5906;51.660;6.674;2023-07-20T13:42:38;1.30;;;1.10;;
11699;SDS011;5906;51.660;6.674;2023-07-20T13:45:07;2.50;;;1.30;;
11699;SDS011;5906;51.660;6.674;2023-07-20T13:47:34;1.50;;;1.40;;
11699;SDS011;5906;51.660;6.674;2023-07-20T13:50:03;1.20;;;1.10;;
11699;SDS011;5906;51.660;6.674;2023-07-20T13:52:31;1.40;;;1.30;;
11699;SDS011;5906;51.660;6.674;2023-07-20T13:55:01;1.60;;;1.50;;
11699;SDS011;5906;51.660;6.674;2023-07-20T13:57:31;1.60;;;1.43;;
11699;SDS011;5906;51.660;6.674;2023-07-20T14:00:01;2.83;;;1.20;;
11699;SDS011;5906;51.660;6.674;2023-07-20T14:02:35;1.60;;;1.23;;
11699;SDS011;5906;51.660;6.674;2023-07-20T14:05:06;1.53;;;1.30;;
11699;SDS011;5906;51.660;6.674;2023-07-20T14:07:36;1.87;;;1.20;;
11699;SDS011;5906;51.660;6.674;2023-07-20T14:10:04;4.63;;;1.33;;
11699;SDS011;5906;51.660;6.674;2023-07-20T14:12:34;1.73;;;1.20;;
11699;SDS011;5906;51.660;6.674;2023-07-20T14:15:01;1.33;;;1.10;;
11699;SDS011;5906;51.660;6.674;2023-07-20T14:17:28;2.37;;;1.30;;
11699;SDS011;5906;51.660;6.674;2023-07-20T14:19:58;1.30;;;1.20;;
11699;SDS011;5906;51.660;6.674;2023-07-20T14:22:25;3.20;;;1.40;;
11699;SDS011;5906;51.660;6.674;2023-07-20T14:24:53;1.10;;;1.00;;
11699;SDS011;5906;51.660;6.674;2023-07-20T14:27:20;2.93;;;1.20;;
11699;SDS011;5906;51.660;6.674;2023-07-20T14:29:47;1.63;;;1.30;;
11699;SDS011;5906;51.660;6.674;2023-07-20T14:32:14;1.30;;;1.17;;
11699;SDS011;5906;51.660;6.674;2023-07-20T14:34:41;2.20;;;1.50;;
11699;SDS011;5906;51.660;6.674;2023-07-20T14:37:08;2.00;;;1.40;;
11699;SDS011;5906;51.660;6.674;2023-07-20T14:39:35;1.60;;;1.20;;
11699;SDS011;5906;51.660;6.674;2023-07-20T14:42:02;1.50;;;1.40;;
11699;SDS011;5906;51.660;6.674;2023-07-20T14:44:30;1.30;;;1.20;;
11699;SDS011;5906;51.660;6.674;2023-07-20T14:46:59;1.30;;;1.20;;
11699;SDS011;5906;51.660;6.674;2023-07-20T14:49:40;1.63;;;1.17;;
11699;SDS011;5906;51.660;6.674;2023-07-20T14:52:08;1.87;;;1.40;;
11699;SDS011;5906;51.660;6.674;2023-07-20T14:54:38;3.30;;;1.20;;
11699;SDS011;5906;51.660;6.674;2023-07-20T14:57:05;1.80;;;1.30;;
11699;SDS011;5906;51.660;6.674;2023-07-20T14:59:40;1.40;;;1.30;;
11699;SDS011;5906;51.660;6.674;2023-07-20T15:02:11;2.10;;;1.90;;
11699;SDS011;5906;51.660;6.674;2023-07-20T15:04:48;2.40;;;1.40;;
11699;SDS011;5906;51.660;6.674;2023-07-20T15:07:17;4.10;;;1.33;;
11699;SDS011;5906;51.660;6.674;2023-07-20T15:09:46;1.73;;;1.50;;
11699;SDS011;5906;51.660;6.674;2023-07-20T15:12:13;2.07;;;1.50;;
11699;SDS011;5906;51.660;6.674;2023-07-20T15:14:40;2.70;;;1.30;;
11699;SDS011;5906;51.660;6.674;2023-07-20T15:17:09;2.20;;;1.60;;
11699;SDS011;5906;51.660;6.674;2023-07-20T15:19:36;1.30;;;1.20;;
11699;SDS011;5906;51.660;6.674;2023-07-20T15:22:04;1.30;;;1.20;;
11699;SDS011;5906;51.660;6.674;2023-07-20T15:24:32;1.90;;;1.50;;
11699;SDS011;5906;51.660;6.674;2023-07-20T15:27:01;2.37;;;1.50;;
11699;SDS011;5906;51.660;6.674;2023-07-20T15:29:30;2.00;;;1.63;;
11699;SDS011;5906;51.660;6.674;2023-07-20T15:31:59;2.27;;;1.60;;
11699;SDS011;5906;51.660;6.674;2023-07-20T15:34:27;6.00;;;1.60;;
11699;SDS011;5906;51.660;6.674;2023-07-20T15:36:54;2.87;;;2.03;;
11699;SDS011;5906;51.660;6.674;2023-07-20T15:39:21;1.77;;;1.50;;